sensor_id;sensor_type;location;lat;lon;timestamp;pressure;altitude;pressure_sealevel;temperature;humidity
34742;BME280;20968;42.696;23.360;2024-01-11T00:02:12;96196.06;;;-1.11;65.85
34742;BME280;20968;42.696;23.360;2024-01-11T00:04:38;96202.56;;;-1.19;66.49
34742;BME280;20968;42.696;23.360;2024-01-11T00:07:05;96200.28;;;-1.17;65.99
34742;BME280;20968;42.696;23.360;2024-01-11T00:09:30;96194.88;;;-1.17;66.54
34742;BME280;20968;42.696;23.360;2024-01-11T00:11:56;96195.25;;;-1.19;66.22
34742;BME280;20968;42.696;23.360;2024-01-11T00:14:21;96194.88;;;-1.17;65.47
34742;BME280;20968;42.696;23.360;2024-01-11T00:16:46;96194.50;;;-1.16;65.92
34742;BME280;20968;42.696;23.360;2024-01-11T00:19:12;96187.53;;;-1.17;65.52
34742;BME280;20968;42.696;23.360;2024-01-11T00:21:37;96186.78;;;-1.17;65.38
34742;BME280;20968;42.696;23.360;2024-01-11T00:24:03;96183.66;;;-1.19;65.17
34742;BME280;20968;42.696;23.360;2024-01-11T00:26:28;96189.03;;;-1.23;65.81
34742;BME280;20968;42.696;23.360;2024-01-11T00:28:53;96181.59;;;-1.43;65.59
34742;BME280;20968;42.696;23.360;2024-01-11T00:31:19;96180.78;;;-1.54;65.97
34742;BME280;20968;42.696;23.360;2024-01-11T00:33:44;96194.31;;;-1.47;65.76
34742;BME280;20968;42.696;23.360;2024-01-11T00:36:10;96188.91;;;-1.47;66.09
34742;BME280;20968;42.696;23.360;2024-01-11T00:38:35;96180.41;;;-1.49;66.10
34742;BME280;20968;42.696;23.360;2024-01-11T00:41:00;96180.03;;;-1.48;65.90
34742;BME280;20968;42.696;23.360;2024-01-11T00:43:26;96175.81;;;-1.45;65.96
34742;BME280;20968;42.696;23.360;2024-01-11T00:45:51;96173.47;;;-1.50;66.15
34742;BME280;20968;42.696;23.360;2024-01-11T00:48:17;96174.97;;;-1.56;66.91
34742;BME280;20968;42.696;23.360;2024-01-11T00:50:42;96169.59;;;-1.53;67.07
34742;BME280;20968;42.696;23.360;2024-01-11T00:53:07;96173.47;;;-1.50;67.16
34742;BME280;20968;42.696;23.360;2024-01-11T00:55:34;96160.31;;;-1.55;67.40
34742;BME280;20968;42.696;23.360;2024-01-11T00:57:59;96166.13;;;-1.53;67.24
34742;BME280;20968;42.696;23.360;2024-01-11T01:00:25;96163.44;;;-1.53;67.47
34742;BME280;20968;42.696;23.360;2024-01-11T01:02:50;96166.88;;;-1.53;67.00
34742;BME280;20968;42.696;23.360;2024-01-11T01:05:16;96160.34;;;-1.52;67.22
34742;BME280;20968;42.696;23.360;2024-01-11T01:07:41;96161.50;;;-1.53;67.64
34742;BME280;20968;42.696;23.360;2024-01-11T01:10:07;96161.06;;;-1.58;67.40
34742;BME280;20968;42.696;23.360;2024-01-11T01:12:33;96162.63;;;-1.57;67.13
34742;BME280;20968;42.696;23.360;2024-01-11T01:14:58;96168.34;;;-1.65;66.91
34742;BME280;20968;42.696;23.360;2024-01-11T01:17:24;96166.28;;;-1.86;66.73
34742;BME280;20968;42.696;23.360;2024-01-11T01:19:49;96160.81;;;-1.96;66.42
34742;BME280;20968;42.696;23.360;2024-01-11T01:22:14;96168.00;;;-2.11;66.88
34742;BME280;20968;42.696;23.360;2024-01-11T01:24:40;96167.66;;;-2.06;67.21
34742;BME280;20968;42.696;23.360;2024-01-11T01:27:05;96157.25;;;-2.04;66.60
34742;BME280;20968;42.696;23.360;2024-01-11T01:29:31;96157.66;;;-2.02;66.46
34742;BME280;20968;42.696;23.360;2024-01-11T01:31:56;96156.97;;;-1.95;66.67
34742;BME280;20968;42.696;23.360;2024-01-11T01:34:22;96159.28;;;-1.94;66.80
34742;BME280;20968;42.696;23.360;2024-01-11T01:36:47;96161.63;;;-1.89;66.80
34742;BME280;20968;42.696;23.360;2024-01-11T01:39:12;96157.00;;;-1.92;66.77
34742;BME280;20968;42.696;23.360;2024-01-11T01:41:39;96148.50;;;-1.90;66.90
34742;BME280;20968;42.696;23.360;2024-01-11T01:44:04;96150.81;;;-1.89;66.48
34742;BME280;20968;42.696;23.360;2024-01-11T01:46:31;96142.00;;;-1.86;67.43
34742;BME280;20968;42.696;23.360;2024-01-11T01:48:57;96136.34;;;-2.21;66.44
34742;BME280;20968;42.696;23.360;2024-01-11T01:51:25;96134.00;;;-2.22;67.35
34742;BME280;20968;42.696;23.360;2024-01-11T01:53:52;96132.22;;;-2.08;67.27
34742;BME280;20968;42.696;23.360;2024-01-11T01:56:19;96140.22;;;-2.18;67.04
34742;BME280;20968;42.696;23.360;2024-01-11T01:58:45;96134.47;;;-2.13;67.43
34742;BME280;20968;42.696;23.360;2024-01-11T02:01:12;96130.38;;;-2.43;67.47
34742;BME280;20968;42.696;23.360;2024-01-11T02:03:38;96129.22;;;-2.39;67.10
34742;BME280;20968;42.696;23.360;2024-01-11T02:06:05;96129.69;;;-2.30;67.68
34742;BME280;20968;42.696;23.360;2024-01-11T02:08:31;96118.59;;;-2.25;66.60
34742;BME280;20968;42.696;23.360;2024-01-11T02:10:59;96121.28;;;-2.25;67.21
34742;BME280;20968;42.696;23.360;2024-01-11T02:13:25;96122.06;;;-2.25;66.66
34742;BME280;20968;42.696;23.360;2024-01-11T02:15:50;96123.97;;;-2.29;66.38
34742;BME280;20968;42.696;23.360;2024-01-11T02:18:16;96120.44;;;-2.33;67.04
34742;BME280;20968;42.696;23.360;2024-01-11T02:20:41;96117.75;;;-2.33;66.77
34742;BME280;20968;42.696;23.360;2024-01-11T02:23:12;96116.22;;;-2.30;66.75
34742;BME280;20968;42.696;23.360;2024-01-11T02:25:39;96121.22;;;-2.32;66.18
34742;BME280;20968;42.696;23.360;2024-01-11T02:28:05;96114.63;;;-2.38;66.47
34742;BME280;20968;42.696;23.360;2024-01-11T02:30:31;96114.22;;;-2.40;66.19
34742;BME280;20968;42.696;23.360;2024-01-11T02:32:57;96119.63;;;-2.40;66.02
34742;BME280;20968;42.696;23.360;2024-01-11T02:35:23;96120.75;;;-2.41;67.03
34742;BME280;20968;42.696;23.360;2024-01-11T02:37:50;96111.16;;;-2.38;66.17
34742;BME280;20968;42.696;23.360;2024-01-11T02:40:15;96117.63;;;-2.46;66.87
34742;BME280;20968;42.696;23.360;2024-01-11T02:42:41;96112.97;;;-2.49;65.85
34742;BME280;20968;42.696;23.360;2024-01-11T02:45:07;96111.06;;;-2.49;66.79
34742;BME280;20968;42.696;23.360;2024-01-11T02:47:32;96109.56;;;-2.43;65.89
34742;BME280;20968;42.696;23.360;2024-01-11T02:49:58;96106.84;;;-2.46;66.42
34742;BME280;20968;42.696;23.360;2024-01-11T02:52:23;96093.41;;;-2.43;66.18
34742;BME280;20968;42.696;23.360;2024-01-11T02:54:49;96108.81;;;-2.43;66.97
34742;BME280;20968;42.696;23.360;2024-01-11T02:57:14;96100.78;;;-2.36;65.93
34742;BME280;20968;42.696;23.360;2024-01-11T02:59:40;96098.78;;;-2.43;64.96
34742;BME280;20968;42.696;23.360;2024-01-11T03:02:05;96100.28;;;-2.49;65.44
34742;BME280;20968;42.696;23.360;2024-01-11T03:04:31;96095.94;;;-2.60;65.85
34742;BME280;20968;42.696;23.360;2024-01-11T03:06:56;96096.25;;;-2.69;65.77
34742;BME280;20968;42.696;23.360;2024-01-11T03:09:22;96097.81;;;-2.64;66.71
34742;BME280;20968;42.696;23.360;2024-01-11T03:11:47;96097.84;;;-2.61;66.42
34742;BME280;20968;42.696;23.360;2024-01-11T03:14:12;96098.28;;;-2.55;65.85
34742;BME280;20968;42.696;23.360;2024-01-11T03:16:38;96101.00;;;-2.55;65.81
34742;BME280;20968;42.696;23.360;2024-01-11T03:19:05;96094.53;;;-2.47;66.66
34742;BME280;20968;42.696;23.360;2024-01-11T03:21:31;96099.16;;;-2.48;66.34
34742;BME280;20968;42.696;23.360;2024-01-11T03:23:56;96099.13;;;-2.51;66.82
34742;BME280;20968;42.696;23.360;2024-01-11T03:26:22;96096.81;;;-2.49;66.06
34742;BME280;20968;42.696;23.360;2024-01-11T03:28:47;96100.22;;;-2.56;65.43
34742;BME280;20968;42.696;23.360;2024-01-11T03:31:13;96097.16;;;-2.54;65.47
34742;BME280;20968;42.696;23.360;2024-01-11T03:33:39;96096.38;;;-2.58;66.07
34742;BME280;20968;42.696;23.360;2024-01-11T03:36:11;96095.63;;;-2.52;65.63
34742;BME280;20968;42.696;23.360;2024-01-11T03:38:37;96092.50;;;-2.57;66.21
34742;BME280;20968;42.696;23.360;2024-01-11T03:41:08;96091.34;;;-2.56;65.47
34742;BME280;20968;42.696;23.360;2024-01-11T03:43:35;96088.97;;;-2.65;66.35
34742;BME280;20968;42.696;23.360;2024-01-11T03:46:00;96095.56;;;-2.59;66.68
34742;BME280;20968;42.696;23.360;2024-01-11T03:48:26;96085.59;;;-2.58;66.36
34742;BME280;20968;42.696;23.360;2024-01-11T03:50:51;96080.88;;;-2.68;66.42
34742;BME280;20968;42.696;23.360;2024-01-11T03:53:17;96078.91;;;-2.71;66.35
34742;BME280;20968;42.696;23.360;2024-01-11T03:55:42;96074.66;;;-2.72;67.39
34742;BME280;20968;42.696;23.360;2024-01-11T03:58:08;96083.16;;;-2.70;67.40
34742;BME280;20968;42.696;23.360;2024-01-11T04:00:33;96073.97;;;-2.66;66.99
34742;BME280;20968;42.696;23.360;2024-01-11T04:02:58;96076.28;;;-2.64;67.00
34742;BME280;20968;42.696;23.360;2024-01-11T04:05:24;96074.38;;;-2.64;66.55
34742;BME280;20968;42.696;23.360;2024-01-11T04:07:50;96072.44;;;-2.63;66.02
34742;BME280;20968;42.696;23.360;2024-01-11T04:10:17;96078.19;;;-2.68;67.39
34742;BME280;20968;42.696;23.360;2024-01-11T04:12:43;96075.44;;;-2.72;66.88
34742;BME280;20968;42.696;23.360;2024-01-11T04:15:08;96075.81;;;-2.73;66.68
34742;BME280;20968;42.696;23.360;2024-01-11T04:17:34;96070.41;;;-2.73;67.56
34742;BME280;20968;42.696;23.360;2024-01-11T04:19:59;96070.00;;;-2.79;66.68
34742;BME280;20968;42.696;23.360;2024-01-11T04:22:25;96057.69;;;-2.80;67.63
34742;BME280;20968;42.696;23.360;2024-01-11T04:24:50;96057.94;;;-2.92;66.66
34742;BME280;20968;42.696;23.360;2024-01-11T04:27:15;96056.03;;;-2.91;67.79
34742;BME280;20968;42.696;23.360;2024-01-11T04:29:41;96060.22;;;-2.97;67.43
34742;BME280;20968;42.696;23.360;2024-01-11T04:32:06;96063.75;;;-2.86;67.19
34742;BME280;20968;42.696;23.360;2024-01-11T04:34:32;96063.00;;;-2.87;67.94
34742;BME280;20968;42.696;23.360;2024-01-11T04:36:57;96057.59;;;-2.90;67.51
34742;BME280;20968;42.696;23.360;2024-01-11T04:39:22;96059.84;;;-2.92;67.16
34742;BME280;20968;42.696;23.360;2024-01-11T04:41:48;96059.00;;;-3.00;67.99
34742;BME280;20968;42.696;23.360;2024-01-11T04:44:13;96064.28;;;-3.10;67.93
34742;BME280;20968;42.696;23.360;2024-01-11T04:46:39;96058.91;;;-3.10;68.62
34742;BME280;20968;42.696;23.360;2024-01-11T04:49:04;96074.41;;;-3.00;67.15
34742;BME280;20968;42.696;23.360;2024-01-11T04:51:29;96070.91;;;-3.04;67.30
34742;BME280;20968;42.696;23.360;2024-01-11T04:53:55;96069.31;;;-3.08;67.36
34742;BME280;20968;42.696;23.360;2024-01-11T04:56:20;96070.16;;;-3.01;68.16
34742;BME280;20968;42.696;23.360;2024-01-11T04:58:47;96074.84;;;-2.95;67.35
34742;BME280;20968;42.696;23.360;2024-01-11T05:01:14;96072.22;;;-2.88;67.81
34742;BME280;20968;42.696;23.360;2024-01-11T05:03:40;96077.22;;;-2.86;67.54
34742;BME280;20968;42.696;23.360;2024-01-11T05:06:06;96067.97;;;-2.89;67.16
34742;BME280;20968;42.696;23.360;2024-01-11T05:08:31;96074.88;;;-2.91;68.32
34742;BME280;20968;42.696;23.360;2024-01-11T05:10:56;96072.19;;;-2.91;67.92
34742;BME280;20968;42.696;23.360;2024-01-11T05:13:22;96072.19;;;-2.91;67.42
34742;BME280;20968;42.696;23.360;2024-01-11T05:15:47;96066.81;;;-2.91;67.44
34742;BME280;20968;42.696;23.360;2024-01-11T05:18:13;96064.09;;;-2.91;67.53
34742;BME280;20968;42.696;23.360;2024-01-11T05:20:39;96061.44;;;-2.88;67.85
34742;BME280;20968;42.696;23.360;2024-01-11T05:23:04;96054.81;;;-2.97;67.20
34742;BME280;20968;42.696;23.360;2024-01-11T05:25:30;96054.03;;;-2.98;67.69
34742;BME280;20968;42.696;23.360;2024-01-11T05:27:59;96055.13;;;-3.02;68.36
34742;BME280;20968;42.696;23.360;2024-01-11T05:30:24;96051.31;;;-3.01;67.62
34742;BME280;20968;42.696;23.360;2024-01-11T05:32:50;96045.56;;;-2.96;67.71
34742;BME280;20968;42.696;23.360;2024-01-11T05:35:15;96049.81;;;-2.95;67.33
34742;BME280;20968;42.696;23.360;2024-01-11T05:37:41;96045.84;;;-3.08;67.21
34742;BME280;20968;42.696;23.360;2024-01-11T05:40:07;96041.50;;;-3.19;69.02
34742;BME280;20968;42.696;23.360;2024-01-11T05:42:33;96041.53;;;-3.16;69.38
34742;BME280;20968;42.696;23.360;2024-01-11T05:44:58;96041.25;;;-3.08;68.84
34742;BME280;20968;42.696;23.360;2024-01-11T05:47:24;96041.25;;;-3.08;69.02
34742;BME280;20968;42.696;23.360;2024-01-11T05:49:49;96030.84;;;-3.09;68.99
34742;BME280;20968;42.696;23.360;2024-01-11T05:52:15;96032.41;;;-3.08;67.80
34742;BME280;20968;42.696;23.360;2024-01-11T05:54:40;96035.50;;;-3.06;67.81
34742;BME280;20968;42.696;23.360;2024-01-11T05:57:06;96035.50;;;-3.06;68.74
34742;BME280;20968;42.696;23.360;2024-01-11T05:59:32;96032.81;;;-3.06;68.18
34742;BME280;20968;42.696;23.360;2024-01-11T06:01:58;96025.53;;;-3.02;68.46
34742;BME280;20968;42.696;23.360;2024-01-11T06:04:26;96027.06;;;-3.01;68.79
34742;BME280;20968;42.696;23.360;2024-01-11T06:06:51;96027.41;;;-3.06;68.18
34742;BME280;20968;42.696;23.360;2024-01-11T06:09:17;96020.91;;;-3.05;67.84
34742;BME280;20968;42.696;23.360;2024-01-11T06:11:42;96024.31;;;-3.08;68.78
34742;BME280;20968;42.696;23.360;2024-01-11T06:14:08;96020.13;;;-3.02;68.72
34742;BME280;20968;42.696;23.360;2024-01-11T06:16:34;96028.63;;;-3.00;68.49
34742;BME280;20968;42.696;23.360;2024-01-11T06:18:59;96025.94;;;-3.00;68.59
34742;BME280;20968;42.696;23.360;2024-01-11T06:21:25;96030.59;;;-2.97;69.29
34742;BME280;20968;42.696;23.360;2024-01-11T06:23:50;96026.34;;;-2.98;68.57
34742;BME280;20968;42.696;23.360;2024-01-11T06:26:16;96023.28;;;-2.97;68.56
34742;BME280;20968;42.696;23.360;2024-01-11T06:28:41;96021.00;;;-2.95;68.92
34742;BME280;20968;42.696;23.360;2024-01-11T06:31:06;96015.59;;;-2.95;68.33
34742;BME280;20968;42.696;23.360;2024-01-11T06:33:34;96013.69;;;-2.94;69.16
34742;BME280;20968;42.696;23.360;2024-01-11T06:36:04;96007.84;;;-3.00;69.19
34742;BME280;20968;42.696;23.360;2024-01-11T06:38:29;96014.44;;;-2.97;68.77
34742;BME280;20968;42.696;23.360;2024-01-11T06:40:55;96012.94;;;-2.91;69.01
34742;BME280;20968;42.696;23.360;2024-01-11T06:43:20;96002.91;;;-2.94;69.13
34742;BME280;20968;42.696;23.360;2024-01-11T06:45:46;96008.31;;;-2.91;68.79
34742;BME280;20968;42.696;23.360;2024-01-11T06:48:11;96009.84;;;-2.93;68.21
34742;BME280;20968;42.696;23.360;2024-01-11T06:50:37;96010.63;;;-2.93;68.93
34742;BME280;20968;42.696;23.360;2024-01-11T06:53:02;96007.50;;;-2.98;69.23
34742;BME280;20968;42.696;23.360;2024-01-11T06:55:28;96011.44;;;-2.89;69.01
34742;BME280;20968;42.696;23.360;2024-01-11T06:57:53;96004.50;;;-2.86;68.55
34742;BME280;20968;42.696;23.360;2024-01-11T07:00:19;96009.78;;;-3.00;68.42
34742;BME280;20968;42.696;23.360;2024-01-11T07:02:44;96013.69;;;-2.94;69.27
34742;BME280;20968;42.696;23.360;2024-01-11T07:05:10;96004.91;;;-2.88;68.71
34742;BME280;20968;42.696;23.360;2024-01-11T07:07:35;96001.00;;;-2.94;68.85
34742;BME280;20968;42.696;23.360;2024-01-11T07:10:01;96004.03;;;-2.95;68.66
34742;BME280;20968;42.696;23.360;2024-01-11T07:12:26;96008.69;;;-2.92;68.92
34742;BME280;20968;42.696;23.360;2024-01-11T07:14:51;96007.16;;;-2.93;68.01
34742;BME280;20968;42.696;23.360;2024-01-11T07:17:17;96003.78;;;-2.83;68.67
34742;BME280;20968;42.696;23.360;2024-01-11T07:19:43;96006.03;;;-2.89;68.44
34742;BME280;20968;42.696;23.360;2024-01-11T07:22:08;95997.53;;;-2.94;68.22
34742;BME280;20968;42.696;23.360;2024-01-11T07:24:33;96004.47;;;-2.93;68.19
34742;BME280;20968;42.696;23.360;2024-01-11T07:27:04;95995.34;;;-2.78;67.76
34742;BME280;20968;42.696;23.360;2024-01-11T07:29:30;95997.31;;;-2.75;68.94
34742;BME280;20968;42.696;23.360;2024-01-11T07:31:55;96006.00;;;-2.92;68.68
34742;BME280;20968;42.696;23.360;2024-01-11T07:34:21;95992.13;;;-2.94;69.44
34742;BME280;20968;42.696;23.360;2024-01-11T07:36:47;96001.94;;;-2.72;68.30
34742;BME280;20968;42.696;23.360;2024-01-11T07:39:12;95997.78;;;-2.66;68.92
34742;BME280;20968;42.696;23.360;2024-01-11T07:41:37;95992.75;;;-2.64;68.35
34742;BME280;20968;42.696;23.360;2024-01-11T07:44:03;95993.13;;;-2.69;68.54
34742;BME280;20968;42.696;23.360;2024-01-11T07:46:28;96008.03;;;-2.82;69.31
34742;BME280;20968;42.696;23.360;2024-01-11T07:48:54;96002.28;;;-2.77;69.16
34742;BME280;20968;42.696;23.360;2024-01-11T07:51:19;95997.31;;;-2.75;69.23
34742;BME280;20968;42.696;23.360;2024-01-11T07:53:45;95991.50;;;-2.81;68.79
34742;BME280;20968;42.696;23.360;2024-01-11T07:56:11;95985.41;;;-2.74;70.04
34742;BME280;20968;42.696;23.360;2024-01-11T07:58:36;95986.91;;;-2.73;70.26
34742;BME280;20968;42.696;23.360;2024-01-11T08:01:03;95991.47;;;-2.84;69.39
34742;BME280;20968;42.696;23.360;2024-01-11T08:03:29;95994.47;;;-2.93;70.58
34742;BME280;20968;42.696;23.360;2024-01-11T08:05:55;95983.03;;;-2.79;70.73
34742;BME280;20968;42.696;23.360;2024-01-11T08:08:20;95986.63;;;-2.61;69.77
34742;BME280;20968;42.696;23.360;2024-01-11T08:10:47;95988.25;;;-2.53;69.62
34742;BME280;20968;42.696;23.360;2024-01-11T08:13:15;95981.38;;;-2.44;69.93
34742;BME280;20968;42.696;23.360;2024-01-11T08:15:40;95980.25;;;-2.36;69.48
34742;BME280;20968;42.696;23.360;2024-01-11T08:18:07;95980.91;;;-2.53;68.96
34742;BME280;20968;42.696;23.360;2024-01-11T08:20:32;95970.16;;;-2.49;69.36
34742;BME280;20968;42.696;23.360;2024-01-11T08:22:58;95969.41;;;-2.46;69.88
34742;BME280;20968;42.696;23.360;2024-01-11T08:25:23;95975.59;;;-2.39;69.59
34742;BME280;20968;42.696;23.360;2024-01-11T08:27:48;95969.91;;;-2.31;68.48
34742;BME280;20968;42.696;23.360;2024-01-11T08:30:14;95967.28;;;-2.17;69.03
34742;BME280;20968;42.696;23.360;2024-01-11T08:32:41;95959.88;;;-2.33;68.30
34742;BME280;20968;42.696;23.360;2024-01-11T08:35:08;95968.78;;;-2.26;68.80
34742;BME280;20968;42.696;23.360;2024-01-11T08:37:35;95964.25;;;-2.05;69.06
34742;BME280;20968;42.696;23.360;2024-01-11T08:40:01;95970.84;;;-1.99;68.50
34742;BME280;20968;42.696;23.360;2024-01-11T08:42:27;95973.59;;;-1.92;68.67
34742;BME280;20968;42.696;23.360;2024-01-11T08:44:52;95966.66;;;-1.89;67.96
34742;BME280;20968;42.696;23.360;2024-01-11T08:47:18;95967.38;;;-1.96;68.23
34742;BME280;20968;42.696;23.360;2024-01-11T08:49:43;95965.88;;;-1.90;67.91
34742;BME280;20968;42.696;23.360;2024-01-11T08:52:09;95962.78;;;-1.92;67.94
34742;BME280;20968;42.696;23.360;2024-01-11T08:54:34;95962.00;;;-1.96;68.16
34742;BME280;20968;42.696;23.360;2024-01-11T08:57:00;95958.16;;;-1.95;67.50
34742;BME280;20968;42.696;23.360;2024-01-11T08:59:26;95954.03;;;-1.68;67.80
34742;BME280;20968;42.696;23.360;2024-01-11T09:01:52;95953.28;;;-1.44;66.60
34742;BME280;20968;42.696;23.360;2024-01-11T09:04:18;95944.84;;;-1.32;69.49
34742;BME280;20968;42.696;23.360;2024-01-11T09:06:44;95942.50;;;-1.51;67.03
34742;BME280;20968;42.696;23.360;2024-01-11T09:09:12;95929.38;;;-0.20;83.45
34742;BME280;20968;42.696;23.360;2024-01-11T09:11:40;95927.09;;;-0.50;74.91
34742;BME280;20968;42.696;23.360;2024-01-11T09:14:08;95925.56;;;-0.61;69.71
34742;BME280;20968;42.696;23.360;2024-01-11T09:16:38;95926.72;;;-0.59;68.46
34742;BME280;20968;42.696;23.360;2024-01-11T09:19:04;95926.00;;;-0.80;66.25
34742;BME280;20968;42.696;23.360;2024-01-11T09:21:30;95925.22;;;-0.87;65.14
34742;BME280;20968;42.696;23.360;2024-01-11T09:23:55;95917.50;;;-0.78;65.67
34742;BME280;20968;42.696;23.360;2024-01-11T09:26:21;95914.00;;;-0.55;63.31
34742;BME280;20968;42.696;23.360;2024-01-11T09:28:48;95919.78;;;-0.60;63.88
34742;BME280;20968;42.696;23.360;2024-01-11T09:31:13;95911.28;;;-0.51;63.23
34742;BME280;20968;42.696;23.360;2024-01-11T09:33:39;95910.47;;;-0.38;62.48
34742;BME280;20968;42.696;23.360;2024-01-11T09:36:05;95899.66;;;-0.41;61.94
34742;BME280;20968;42.696;23.360;2024-01-11T09:38:30;95905.84;;;-0.34;63.13
34742;BME280;20968;42.696;23.360;2024-01-11T09:41:16;95895.00;;;-0.27;62.00
34742;BME280;20968;42.696;23.360;2024-01-11T09:43:41;95887.66;;;-0.30;61.89
34742;BME280;20968;42.696;23.360;2024-01-11T09:46:09;95882.22;;;-0.16;62.26
34742;BME280;20968;42.696;23.360;2024-01-11T09:48:38;95871.38;;;-0.09;61.54
34742;BME280;20968;42.696;23.360;2024-01-11T09:51:04;95869.44;;;-0.12;62.05
34742;BME280;20968;42.696;23.360;2024-01-11T09:53:33;95866.31;;;0.00;62.17
34742;BME280;20968;42.696;23.360;2024-01-11T09:55:59;95858.94;;;0.04;61.92
34742;BME280;20968;42.696;23.360;2024-01-11T09:58:25;95856.13;;;0.25;61.30
34742;BME280;20968;42.696;23.360;2024-01-11T10:00:55;95844.59;;;0.10;61.64
34742;BME280;20968;42.696;23.360;2024-01-11T10:03:23;95848.41;;;0.23;61.85
34742;BME280;20968;42.696;23.360;2024-01-11T10:05:49;95854.53;;;0.31;59.77
34742;BME280;20968;42.696;23.360;2024-01-11T10:08:18;95845.28;;;0.25;61.70
34742;BME280;20968;42.696;23.360;2024-01-11T10:10:44;95842.94;;;0.30;61.16
34742;BME280;20968;42.696;23.360;2024-01-11T10:13:09;95839.13;;;0.21;61.70
34742;BME280;20968;42.696;23.360;2024-01-11T10:15:36;95828.22;;;0.35;61.39
34742;BME280;20968;42.696;23.360;2024-01-11T10:18:01;95821.91;;;0.52;61.96
34742;BME280;20968;42.696;23.360;2024-01-11T10:20:27;95823.50;;;0.49;62.31
34742;BME280;20968;42.696;23.360;2024-01-11T10:22:56;95810.25;;;0.58;61.99
34742;BME280;20968;42.696;23.360;2024-01-11T10:25:22;95811.97;;;0.35;63.58
34742;BME280;20968;42.696;23.360;2024-01-11T10:27:48;95806.44;;;0.52;63.95
34742;BME280;20968;42.696;23.360;2024-01-11T10:30:14;95801.03;;;0.49;63.33
34742;BME280;20968;42.696;23.360;2024-01-11T10:32:48;95801.00;;;0.56;63.42
34742;BME280;20968;42.696;23.360;2024-01-11T10:35:15;95786.84;;;0.31;64.38
34742;BME280;20968;42.696;23.360;2024-01-11T10:37:43;95776.75;;;0.38;66.46
34742;BME280;20968;42.696;23.360;2024-01-11T10:40:10;95775.34;;;0.67;64.73
34742;BME280;20968;42.696;23.360;2024-01-11T10:42:42;95767.22;;;0.67;68.22
34742;BME280;20968;42.696;23.360;2024-01-11T10:45:15;95766.22;;;0.94;66.73
34742;BME280;20968;42.696;23.360;2024-01-11T10:48:02;95768.00;;;0.71;64.53
34742;BME280;20968;42.696;23.360;2024-01-11T10:50:34;95761.06;;;0.67;63.82
34742;BME280;20968;42.696;23.360;2024-01-11T10:55:41;95751.41;;;0.62;64.05
34742;BME280;20968;42.696;23.360;2024-01-11T10:58:07;95745.16;;;0.69;64.35
34742;BME280;20968;42.696;23.360;2024-01-11T11:00:35;95746.94;;;0.85;63.59
34742;BME280;20968;42.696;23.360;2024-01-11T11:03:02;95742.19;;;0.96;63.71
34742;BME280;20968;42.696;23.360;2024-01-11T11:05:28;95739.38;;;1.07;63.15
34742;BME280;20968;42.696;23.360;2024-01-11T11:07:55;95721.50;;;1.13;62.79
34742;BME280;20968;42.696;23.360;2024-01-11T11:10:21;95719.09;;;1.18;62.50
34742;BME280;20968;42.696;23.360;2024-01-11T11:12:48;95713.56;;;1.29;62.13
34742;BME280;20968;42.696;23.360;2024-01-11T11:15:14;95710.81;;;1.32;61.75
34742;BME280;20968;42.696;23.360;2024-01-11T11:17:41;95703.13;;;1.57;61.62
34742;BME280;20968;42.696;23.360;2024-01-11T11:20:07;95700.56;;;1.76;59.97
34742;BME280;20968;42.696;23.360;2024-01-11T11:22:34;95685.88;;;1.74;60.83
34742;BME280;20968;42.696;23.360;2024-01-11T11:25:04;95688.97;;;1.99;60.83
34742;BME280;20968;42.696;23.360;2024-01-11T11:27:31;95684.25;;;2.52;61.15
34742;BME280;20968;42.696;23.360;2024-01-11T11:29:57;95681.66;;;2.68;58.18
34742;BME280;20968;42.696;23.360;2024-01-11T11:32:36;95669.81;;;2.78;57.97
34742;BME280;20968;42.696;23.360;2024-01-11T11:35:01;95661.47;;;3.46;58.98
34742;BME280;20968;42.696;23.360;2024-01-11T11:37:29;95666.25;;;3.78;56.27
34742;BME280;20968;42.696;23.360;2024-01-11T11:39:55;95653.59;;;4.03;55.71
34742;BME280;20968;42.696;23.360;2024-01-11T11:42:22;95652.84;;;4.34;53.56
34742;BME280;20968;42.696;23.360;2024-01-11T11:44:51;95645.78;;;4.37;53.90
34742;BME280;20968;42.696;23.360;2024-01-11T11:47:21;95648.25;;;4.63;53.90
34742;BME280;20968;42.696;23.360;2024-01-11T11:50:13;95644.19;;;5.40;52.61
34742;BME280;20968;42.696;23.360;2024-01-11T11:52:40;95646.13;;;5.80;50.23
34742;BME280;20968;42.696;23.360;2024-01-11T11:55:09;95641.88;;;5.79;48.89
34742;BME280;20968;42.696;23.360;2024-01-11T11:57:35;95637.25;;;5.64;49.37
34742;BME280;20968;42.696;23.360;2024-01-11T12:00:02;95629.00;;;5.92;49.36
34742;BME280;20968;42.696;23.360;2024-01-11T12:02:31;95615.19;;;5.71;48.69
34742;BME280;20968;42.696;23.360;2024-01-11T12:04:56;95614.91;;;5.81;49.13
34742;BME280;20968;42.696;23.360;2024-01-11T12:07:22;95611.81;;;5.79;48.73
34742;BME280;20968;42.696;23.360;2024-01-11T12:09:49;95604.81;;;5.78;49.63
34742;BME280;20968;42.696;23.360;2024-01-11T12:12:15;95599.94;;;5.98;48.91
34742;BME280;20968;42.696;23.360;2024-01-11T12:14:42;95589.06;;;6.19;49.06
34742;BME280;20968;42.696;23.360;2024-01-11T12:17:08;95588.56;;;6.00;48.94
34742;BME280;20968;42.696;23.360;2024-01-11T12:19:34;95589.97;;;6.04;49.02
34742;BME280;20968;42.696;23.360;2024-01-11T12:21:59;95585.13;;;6.20;49.01
34742;BME280;20968;42.696;23.360;2024-01-11T12:24:25;95586.09;;;6.39;48.36
34742;BME280;20968;42.696;23.360;2024-01-11T12:26:52;95574.59;;;6.44;48.96
34742;BME280;20968;42.696;23.360;2024-01-11T12:29:19;95574.88;;;6.58;47.69
34742;BME280;20968;42.696;23.360;2024-01-11T12:31:44;95565.38;;;6.50;48.08
34742;BME280;20968;42.696;23.360;2024-01-11T12:34:11;95569.19;;;6.87;47.71
34742;BME280;20968;42.696;23.360;2024-01-11T12:36:37;95559.41;;;6.98;48.64
34742;BME280;20968;42.696;23.360;2024-01-11T12:39:03;95559.47;;;6.86;47.60
34742;BME280;20968;42.696;23.360;2024-01-11T12:41:32;95558.75;;;7.15;47.33
34742;BME280;20968;42.696;23.360;2024-01-11T12:43:57;95550.00;;;6.99;47.66
34742;BME280;20968;42.696;23.360;2024-01-11T12:46:23;95551.91;;;6.90;48.32
34742;BME280;20968;42.696;23.360;2024-01-11T12:48:49;95547.03;;;6.72;48.22
34742;BME280;20968;42.696;23.360;2024-01-11T12:51:16;95539.31;;;6.24;49.21